Česky Dansk Deutsch English Español Suomi Français Magyar Italiano Nederlands norsk Polski Português svenska Türkçe

 

Het Weer

Aralskoe More (Kazakhstan)

22:00, 29 augustus 2005 (GMT)

NWNNE
WE
SWSSE
Home            
Aralskoe More Kzyl-Orda Nukus / Karakalpakstan Aktjubinsk Urgench Tamdy Kostanay Orenburg / Tsentralny Shymkent Tashkent Astana Aktau Dzizak Uralsk Samarkand Karaganda Chelyabinsk-Balandino Ufa Ashgabat Astrakhan Dushanbe Samara Bojnourd

Om een weerknop op uw website of weblog te plaatsen, copieer onderstaande code en plak die in uw pagina. In het eerste vakje staat HTML-code, in het tweede vakje UBB-code.


Add to Google

Details

Wind speed:2 bf, 3.9 kn, 2 m/s, 4.5 miles/h, 7.2 km/h
Wind direction:Variable
Visibility:Greater than 10000 m, 10 km, 32800 ft, 6.2 miles
Clouds:CAVOC
Temperature:18°C, 64°F
Dew-point:9°C, 48°F
Atmospheric pressure:1012 hPa, 759.1 mmHg, 29.88 inHg, 0.999 atm
Relative humidity:55.6 %
METAR:UATA 302200Z VRB02MPS CAVOK 18/09 Q1012 NOSIG

Snelkoppelingen

Actuele weersinformatie van de hele wereld. Voeg locaties toe met het plus (+) symbool. Deze snelkoppelingen kunnen worden toegevoegd aan Google.

Lid van de Technetium groep

website free tracking
StatCounter NetStat W3C Validator

06-12-2019 09:10:48
astro.technetium.be money.technetium.be phote.technetium.be tafeltennistafel.technetium.be www.ligfiets.net